Time;durP1;ratioP1;P1;durP2;ratioP2;P2;SDS_P1;SDS_P2;PMS_P1;PMS_P2;Temp;Humidity;BMP_temperature;BMP_pressure;BME280_temperature;BME280_humidity;BME280_pressure;Samples;Min_cycle;Max_cycle;Signal;HPM_P1;HPM_P2
2023/03/31 00:03:42;;;;;;;9.65;4.47;;;;;;;9.21;100.00;99616.30;5104584;55;1136811;-70
2023/03/31 00:08:50;;;;;;;11.53;4.53;;;;;;;9.24;100.00;99611.25;5096037;55;1136694;-69
2023/03/31 00:13:53;;;;;;;8.10;3.50;;;;;;;9.23;100.00;99609.58;5080934;55;1138868;-73
2023/03/31 00:19:00;;;;;;;10.00;3.75;;;;;;;9.23;100.00;99601.66;5077601;55;1136972;-71
2023/03/31 00:24:07;;;;;;;7.60;3.77;;;;;;;9.23;100.00;99597.70;5096419;55;1138890;-70
2023/03/31 00:29:14;;;;;;;8.40;3.53;;;;;;;9.25;100.00;99600.56;5075337;55;1136877;-73
2023/03/31 00:34:20;;;;;;;11.18;2.75;;;;;;;9.26;100.00;99590.85;5079268;55;1136769;-69
2023/03/31 00:39:30;;;;;;;10.28;3.75;;;;;;;9.27;100.00;99581.48;5139598;55;1138844;-71
2023/03/31 00:44:36;;;;;;;6.27;3.27;;;;;;;9.30;100.00;99581.70;5118616;55;1138795;-74
2023/03/31 00:49:47;;;;;;;6.50;2.40;;;;;;;9.27;100.00;99581.48;5059961;55;1136846;-73
2023/03/31 00:55:01;;;;;;;8.93;3.30;;;;;;;9.31;100.00;99568.87;5054554;56;1136942;-73
2023/03/31 01:00:17;;;;;;;6.80;2.20;;;;;;;9.33;100.00;99570.38;5077487;55;1136754;-74
2023/03/31 01:05:42;;;;;;;6.77;3.37;;;;;;;9.32;100.00;99559.98;5103248;55;1136707;-72
2023/03/31 01:10:52;;;;;;;4.17;2.53;;;;;;;9.28;100.00;99559.41;5112872;55;1136951;-73
2023/03/31 01:15:58;;;;;;;7.97;3.30;;;;;;;9.18;100.00;99568.59;5057292;56;1136731;-73
2023/03/31 01:21:44;;;;;;;5.85;3.25;;;;;;;9.03;100.00;99567.77;5038108;55;1136716;-70
2023/03/31 01:27:09;;;;;;;;;;;;;;;8.88;100.00;99571.72;5061475;55;1136809;-70
2023/03/31 01:32:34;;;;;;;8.43;3.77;;;;;;;8.77;100.00;99576.12;5104706;55;974020;-72
2023/03/31 01:38:06;;;;;;;5.73;3.67;;;;;;;8.69;100.00;99579.06;5121832;55;1134619;-70
2023/03/31 01:43:40;;;;;;;10.50;4.03;;;;;;;8.64;100.00;99558.84;5141876;55;1136893;-73
2023/03/31 01:49:23;;;;;;;4.00;2.83;;;;;;;8.63;100.00;99561.95;5105828;55;1138965;-70
2023/03/31 01:54:52;;;;;;;11.37;3.67;;;;;;;8.60;100.00;99563.53;5055727;55;1136885;-69
2023/03/31 02:00:10;;;;;;;9.50;3.23;;;;;;;8.54;100.00;99557.95;5121888;55;1139046;-73
2023/03/31 02:05:26;;;;;;;9.20;3.63;;;;;;;8.54;100.00;99550.89;5122050;55;1136699;-73
2023/03/31 02:10:33;;;;;;;4.87;3.72;;;;;;;8.56;100.00;99548.94;5184416;55;1136807;-73
2023/03/31 02:15:43;;;;;;;4.27;3.87;;;;;;;8.54;100.00;99542.98;5070879;56;1136919;-75
2023/03/31 02:20:52;;;;;;;6.35;3.52;;;;;;;8.54;100.00;99538.20;5070720;57;1136966;-73
2023/03/31 02:26:13;;;;;;;9.57;4.17;;;;;;;8.54;100.00;99527.66;5087872;55;1136897;-70
2023/03/31 02:32:02;;;;;;;12.00;4.00;;;;;;;8.57;100.00;99532.64;5071014;56;1136735;-70
2023/03/31 02:37:08;;;;;;;4.93;3.20;;;;;;;8.58;100.00;99521.97;5070983;56;1139088;-73
2023/03/31 02:42:14;;;;;;;6.80;4.00;;;;;;;8.59;100.00;99522.80;5071200;56;1136878;-67
2023/03/31 02:47:22;;;;;;;5.97;3.67;;;;;;;8.61;100.00;99518.24;5141297;55;1136713;-73
2023/03/31 02:52:32;;;;;;;7.50;3.87;;;;;;;8.61;100.00;99508.53;5142434;55;1136732;-70
2023/03/31 02:57:48;;;;;;;4.73;3.60;;;;;;;8.63;100.00;99509.73;5104929;55;1137160;-71
2023/03/31 03:03:18;;;;;;;5.73;3.63;;;;;;;8.65;100.00;99505.16;5145245;55;1136668;-66
2023/03/31 03:08:30;;;;;;;4.60;3.33;;;;;;;8.67;100.00;99496.64;5139643;55;1136757;-69
2023/03/31 03:13:52;;;;;;;11.83;3.37;;;;;;;8.68;100.00;99501.78;5157392;55;1136740;-74
2023/03/31 03:19:05;;;;;;;4.77;3.00;;;;;;;8.69;100.00;99492.91;5177147;56;1138985;-70
2023/03/31 03:24:10;;;;;;;7.53;3.27;;;;;;;8.77;100.00;99486.48;5157119;55;1136865;-71
2023/03/31 03:29:16;;;;;;;10.43;3.43;;;;;;;8.80;100.00;99480.12;5075772;56;1136801;-69
2023/03/31 03:34:22;;;;;;;5.03;2.80;;;;;;;8.84;100.00;99474.09;5057683;55;1138920;-75
2023/03/31 03:39:27;;;;;;;8.13;3.83;;;;;;;8.87;100.00;99472.00;5120214;55;1136881;-67
2023/03/31 03:44:33;;;;;;;3.77;2.67;;;;;;;8.89;100.00;99470.08;5173658;55;1136806;-70
2023/03/31 03:49:38;;;;;;;6.23;3.00;;;;;;;8.89;100.00;99462.65;5080612;55;1137141;-73
2023/03/31 03:54:44;;;;;;;7.30;3.60;;;;;;;8.88;100.00;99460.98;5036514;56;1136789;-70
2023/03/31 03:59:50;;;;;;;8.53;3.10;;;;;;;8.86;100.00;99458.47;5066132;56;1136678;-70
2023/03/31 04:04:55;;;;;;;5.90;3.20;;;;;;;8.88;100.00;99460.49;5089414;55;1136668;-67
2023/03/31 04:10:01;;;;;;;6.13;2.77;;;;;;;8.88;100.00;99457.02;5121504;56;1136911;-68
2023/03/31 04:15:08;;;;;;;3.52;2.47;;;;;;;8.85;100.00;99460.78;5063466;56;1136849;-66
2023/03/31 04:20:13;;;;;;;5.20;2.80;;;;;;;8.86;100.00;99446.61;5101586;56;1136898;-71
2023/03/31 04:25:21;;;;;;;8.23;3.07;;;;;;;8.87;100.00;99448.28;5101596;56;1136720;-69
2023/03/31 04:30:38;;;;;;;7.30;3.23;;;;;;;8.84;100.00;99432.75;5120990;56;1136773;-68
2023/03/31 04:35:48;;;;;;;8.80;4.10;;;;;;;8.89;100.00;99441.55;5099254;55;1136668;-72
2023/03/31 04:40:55;;;;;;;4.03;2.60;;;;;;;8.86;100.00;99423.39;5101378;55;1136810;-70
2023/03/31 04:46:00;;;;;;;6.40;2.80;;;;;;;8.85;100.00;99426.99;5149937;55;1136892;-67
2023/03/31 04:51:06;;;;;;;4.87;2.75;;;;;;;8.86;100.00;99420.75;5188214;55;1136937;-72
2023/03/31 04:56:12;;;;;;;7.85;3.62;;;;;;;8.86;100.00;99424.71;5171326;55;1136749;-69
2023/03/31 05:01:18;;;;;;;5.30;3.90;;;;;;;8.87;100.00;99410.53;5135546;55;1136987;-69
2023/03/31 05:06:23;;;;;;;12.47;5.23;;;;;;;8.87;100.00;99410.53;5177069;55;1136714;-69
2023/03/31 05:11:29;;;;;;;7.40;5.40;;;;;;;8.86;100.00;99412.33;5156322;55;1138845;-72
2023/03/31 05:16:35;;;;;;;7.17;3.27;;;;;;;8.87;100.00;99422.39;5156495;56;1136612;-67
2023/03/31 05:21:41;;;;;;;5.83;3.10;;;;;;;8.86;100.00;99412.33;5177065;56;1136819;-68
2023/03/31 05:26:51;;;;;;;14.47;7.77;;;;;;;8.88;100.00;99409.08;5136954;55;1136696;-71
2023/03/31 05:31:54;;;;;;;12.80;5.40;;;;;;;8.91;100.00;99406.66;5071046;55;1138930;-72
2023/03/31 05:36:59;;;;;;;5.90;3.20;;;;;;;8.90;100.00;99408.46;5070931;56;1148433;-71
2023/03/31 05:42:06;;;;;;;7.75;3.95;;;;;;;8.94;100.00;99409.03;5070456;56;1137032;-70
2023/03/31 05:47:12;;;;;;;10.75;4.92;;;;;;;8.98;100.00;99402.53;5119376;55;1136908;-69
2023/03/31 05:52:18;;;;;;;12.57;6.90;;;;;;;9.04;100.00;99403.28;5156584;55;1138931;-67
2023/03/31 05:57:24;;;;;;;16.00;8.63;;;;;;;9.09;100.00;99395.31;5176449;55;1139168;-70
2023/03/31 06:02:30;;;;;;;28.20;16.90;;;;;;;9.13;100.00;99391.44;5106857;55;1138875;-67
2023/03/31 06:07:35;;;;;;;16.47;10.47;;;;;;;9.17;100.00;99386.70;5106658;55;1140930;-69
2023/03/31 06:12:41;;;;;;;11.03;7.60;;;;;;;9.18;100.00;99383.93;5207857;55;1140925;-68
2023/03/31 06:17:47;;;;;;;10.33;4.47;;;;;;;9.22;100.00;99389.77;5187368;54;1138817;-73
2023/03/31 06:22:52;;;;;;;10.93;3.07;;;;;;;9.26;100.00;99387.70;5187563;55;1138794;-67
2023/03/31 06:27:58;;;;;;;7.93;3.90;;;;;;;9.28;100.00;99381.80;5167938;55;1138964;-68
2023/03/31 06:33:03;;;;;;;7.97;3.10;;;;;;;9.33;100.00;99381.72;5101835;56;1145003;-69
2023/03/31 06:38:09;;;;;;;20.82;13.58;;;;;;;9.37;100.00;99385.75;5102099;55;1136948;-71
2023/03/31 06:43:15;;;;;;;8.23;3.15;;;;;;;9.42;100.00;99380.06;5101821;55;1141004;-69
2023/03/31 06:48:20;;;;;;;10.43;3.77;;;;;;;9.49;100.00;99371.92;5190835;55;1136757;-69
2023/03/31 06:53:28;;;;;;;5.80;2.37;;;;;;;9.59;100.00;99366.16;5186888;55;1138884;-76
2023/03/31 06:58:35;;;;;;;2.07;1.57;;;;;;;9.70;100.00;99367.80;5107497;55;1136762;-76
2023/03/31 07:03:40;;;;;;;9.37;2.83;;;;;;;9.80;100.00;99372.57;5101601;56;1136837;-77
2023/03/31 07:08:47;;;;;;;6.00;1.90;;;;;;;9.92;100.00;99370.63;5110050;55;1136907;-76
2023/03/31 07:13:52;;;;;;;7.50;2.20;;;;;;;10.03;100.00;99358.56;5079066;56;1136802;-79
2023/03/31 07:18:58;;;;;;;4.87;2.20;;;;;;;10.16;100.00;99355.94;5094429;56;1138934;-78
2023/03/31 07:24:04;;;;;;;6.20;2.10;;;;;;;10.38;100.00;99352.14;5054493;56;1141681;-77
2023/03/31 07:29:10;;;;;;;8.93;1.97;;;;;;;10.67;100.00;99352.47;5144781;55;1138774;-75
2023/03/31 07:34:16;;;;;;;4.83;1.93;;;;;;;10.85;100.00;99351.50;5188361;55;1139073;-79
2023/03/31 07:39:22;;;;;;;7.43;2.63;;;;;;;11.04;100.00;99353.19;5207677;55;1139002;-77
2023/03/31 07:44:27;;;;;;;6.10;2.72;;;;;;;11.16;100.00;99352.47;5024600;55;1139034;-76
2023/03/31 07:49:35;;;;;;;4.73;1.87;;;;;;;11.23;100.00;99358.83;5114770;55;1138968;-78
2023/03/31 07:54:41;;;;;;;5.63;2.00;;;;;;;11.24;100.00;99363.14;5162579;55;1138920;-78
2023/03/31 07:59:47;;;;;;;9.57;2.47;;;;;;;11.28;100.00;99348.14;5187788;55;1138804;-80
2023/03/31 08:04:53;;;;;;;7.47;2.40;;;;;;;11.34;100.00;99339.23;5186771;55;1138847;-79
2023/03/31 08:09:59;;;;;;;6.70;2.30;;;;;;;11.36;100.00;99331.97;5192155;55;1139231;-80
2023/03/31 08:15:06;;;;;;;5.43;2.03;;;;;;;11.37;100.00;99330.50;5138379;55;1138916;-77
2023/03/31 08:20:12;;;;;;;6.67;2.67;;;;;;;11.37;100.00;99326.53;5145280;55;1139047;-82
2023/03/31 08:25:20;;;;;;;8.15;2.17;;;;;;;11.43;100.00;99324.61;5126847;55;1138908;-76
2023/03/31 08:30:25;;;;;;;7.30;2.27;;;;;;;11.50;100.00;99325.64;5155542;55;1138850;-79
2023/03/31 08:35:31;;;;;;;4.80;2.02;;;;;;;11.59;100.00;99318.60;5124098;55;1138904;-80
2023/03/31 08:40:38;;;;;;;6.97;2.27;;;;;;;11.71;100.00;99305.44;5059488;56;1139067;-81
2023/03/31 08:45:47;;;;;;;7.53;2.10;;;;;;;11.82;100.00;99312.31;5081038;56;1139434;-77
2023/03/31 08:50:57;;;;;;;9.17;2.80;;;;;;;11.91;100.00;99303.45;5078831;56;1138951;-80
2023/03/31 08:56:07;;;;;;;10.27;2.40;;;;;;;11.99;100.00;99287.58;5082234;56;1139023;-79
2023/03/31 09:01:38;;;;;;;7.65;2.30;;;;;;;12.12;100.00;99287.13;5108049;55;1140866;-80
2023/03/31 09:07:01;;;;;;;7.37;2.57;;;;;;;12.23;100.00;99286.34;5080889;55;1138830;-78
2023/03/31 09:12:11;;;;;;;10.33;3.23;;;;;;;12.36;100.00;99276.65;4905010;57;1139037;-75
2023/03/31 09:17:29;;;;;;;54.45;20.40;;;;;;;12.50;100.00;99261.94;4915109;57;1141060;-80
2023/03/31 09:22:39;;;;;;;25.60;6.00;;;;;;;12.63;100.00;99272.91;4904521;58;1143115;-76
2023/03/31 09:27:46;;;;;;;22.90;12.00;;;;;;;12.60;100.00;99271.40;4941491;58;1141225;-81
2023/03/31 09:32:56;;;;;;;11.40;3.35;;;;;;;12.64;100.00;99267.94;4927211;58;1143066;-77
2023/03/31 09:38:02;;;;;;;10.00;4.07;;;;;;;12.94;100.00;99265.98;4941403;58;1141192;-80
2023/03/31 09:43:28;;;;;;;15.13;2.85;;;;;;;13.22;100.00;99263.04;4935589;58;1141090;-82
2023/03/31 09:48:36;;;;;;;9.20;2.87;;;;;;;13.11;100.00;99258.04;4940913;57;1140908;-82
2023/03/31 09:53:52;;;;;;;9.63;3.33;;;;;;;13.13;100.00;99247.59;4936497;58;1138809;-78
2023/03/31 09:59:01;;;;;;;10.30;3.40;;;;;;;13.19;100.00;99238.14;4955453;57;1138822;-80
2023/03/31 10:04:20;;;;;;;16.03;3.67;;;;;;;13.18;100.00;99233.83;4911186;58;1141125;-81
2023/03/31 10:09:30;;;;;;;18.27;5.57;;;;;;;13.17;100.00;99225.53;4936606;57;1140997;-80
2023/03/31 10:14:48;;;;;;;10.83;2.90;;;;;;;13.16;100.00;99212.75;5002889;56;1140994;-80
2023/03/31 10:19:57;;;;;;;11.73;3.53;;;;;;;13.32;100.00;99211.41;5053797;56;1140956;-74
2023/03/31 10:25:21;;;;;;;8.47;3.03;;;;;;;13.42;100.00;99201.95;5003340;56;1141089;-75
2023/03/31 10:30:34;;;;;;;9.47;3.13;;;;;;;13.47;100.00;99204.08;5022003;56;1138924;-77
2023/03/31 10:35:41;;;;;;;11.90;4.62;;;;;;;13.49;100.00;99198.92;5056652;55;1138860;-81
2023/03/31 10:40:56;;;;;;;8.80;3.47;;;;;;;13.59;100.00;99188.96;5100156;56;1140971;-77
2023/03/31 10:46:03;;;;;;;22.13;10.77;;;;;;;13.66;100.00;99187.26;5140958;55;1138943;-80
2023/03/31 10:51:18;;;;;;;17.13;5.10;;;;;;;13.76;100.00;99167.62;5119709;55;1143035;-80
2023/03/31 10:56:48;;;;;;;16.03;3.37;;;;;;;13.82;100.00;99164.28;5107495;55;1140976;-75
2023/03/31 11:02:16;;;;;;;16.43;6.10;;;;;;;13.85;100.00;99159.45;5118083;56;1140930;-77
2023/03/31 11:08:02;;;;;;;11.38;5.53;;;;;;;13.86;100.00;99164.28;5099219;55;1140984;-79
2023/03/31 11:13:15;;;;;;;8.10;2.43;;;;;;;13.84;100.00;99142.36;5104394;55;1141071;-79
2023/03/31 11:18:46;;;;;;;12.25;6.33;;;;;;;13.94;100.00;99133.66;5112812;55;1138924;-77
2023/03/31 11:24:12;;;;;;;8.67;3.10;;;;;;;14.01;100.00;99131.47;5137587;55;1141021;-76
2023/03/31 11:29:46;;;;;;;17.65;7.08;;;;;;;14.01;100.00;99124.00;5033612;56;1139017;-77
2023/03/31 11:35:08;;;;;;;20.75;4.90;;;;;;;14.03;100.00;99118.84;5038301;56;1140983;-76
2023/03/31 11:40:40;;;;;;;16.75;7.53;;;;;;;14.14;100.00;99118.09;5072817;55;1141080;-76
2023/03/31 11:45:51;;;;;;;9.23;5.70;;;;;;;14.28;100.00;99104.04;5050673;56;1140942;-79
2023/03/31 11:50:59;;;;;;;13.03;5.10;;;;;;;14.48;100.00;99096.45;5062325;56;1138931;-77
2023/03/31 11:56:08;;;;;;;12.05;4.00;;;;;;;14.55;100.00;99086.73;5030573;57;1140922;-76
2023/03/31 12:01:54;;;;;;;9.50;2.82;;;;;;;14.67;100.00;99079.47;5035986;57;1141274;-77
2023/03/31 12:07:13;;;;;;;11.13;3.10;;;;;;;14.93;100.00;99072.92;5066312;56;1139104;-76
2023/03/31 12:12:28;;;;;;;10.40;3.40;;;;;;;15.06;100.00;99061.95;5081974;56;1140929;-78
2023/03/31 12:17:36;;;;;;;15.20;4.40;;;;;;;15.20;100.00;99052.81;5144883;55;1141153;-75
2023/03/31 12:22:48;;;;;;;15.43;6.47;;;;;;;15.14;100.00;99044.55;5052019;55;1140944;-77
2023/03/31 12:27:55;;;;;;;10.00;3.23;;;;;;;15.05;100.00;99032.34;5051935;56;1140864;-80
2023/03/31 12:33:17;;;;;;;12.30;3.60;;;;;;;15.02;100.00;99027.88;5098706;55;1141017;-80
2023/03/31 12:38:48;;;;;;;11.10;3.40;;;;;;;14.97;100.00;99020.44;5106259;55;1141134;-80
2023/03/31 12:44:17;;;;;;;9.53;3.15;;;;;;;14.95;100.00;99013.16;5126379;55;1141122;-73
2023/03/31 12:49:27;;;;;;;12.37;3.30;;;;;;;14.94;100.00;99003.52;5101014;55;1139049;-75
2023/03/31 12:55:21;;;;;;;5.30;2.72;;;;;;;14.93;100.00;98997.05;5120284;55;1140986;-81
2023/03/31 13:00:28;;;;;;;8.80;3.13;;;;;;;14.86;100.00;98994.28;5097153;55;1138908;-77
2023/03/31 13:05:42;;;;;;;7.80;2.93;;;;;;;14.70;100.00;98986.48;5059092;56;1138860;-81
2023/03/31 13:10:59;;;;;;;12.60;3.60;;;;;;;14.62;100.00;98989.23;5087314;55;1138865;-80
2023/03/31 13:16:05;;;;;;;6.53;3.50;;;;;;;14.52;100.00;98976.17;5093170;55;1141050;-81
2023/03/31 13:21:11;;;;;;;10.10;4.20;;;;;;;14.43;100.00;98978.61;5057057;56;1139032;-80
2023/03/31 13:26:41;;;;;;;7.70;3.00;;;;;;;14.21;100.00;98985.58;5048279;55;1141134;-80
2023/03/31 13:32:06;;;;;;;7.07;3.13;;;;;;;13.93;100.00;98971.20;5102400;56;1138840;-80
2023/03/31 13:37:36;;;;;;;13.70;3.87;;;;;;;13.66;100.00;98961.44;5131814;55;1138890;-82
2023/03/31 13:43:08;;;;;;;111.30;58.80;;;;;;;13.55;100.00;98955.20;5087601;55;1140821;-82
2023/03/31 13:48:51;;;;;;;119.67;26.63;;;;;;;13.49;100.00;98941.79;5017595;56;1145026;-84
2023/03/31 13:54:28;;;;;;;47.50;12.03;;;;;;;13.47;100.00;98934.50;5053398;56;1144954;-79
2023/03/31 13:59:54;;;;;;;27.20;7.42;;;;;;;13.50;100.00;98925.69;5057226;56;1143049;-78
2023/03/31 14:05:22;;;;;;;7.53;3.70;;;;;;;13.53;100.00;98917.86;5108902;55;1141441;-76
2023/03/31 14:10:35;;;;;;;14.27;6.30;;;;;;;13.57;100.00;98904.56;5096067;55;1139068;-79
2023/03/31 14:15:54;;;;;;;11.75;4.60;;;;;;;13.58;100.00;98893.77;5084401;56;1141015;-77
2023/03/31 14:21:27;;;;;;;17.13;6.70;;;;;;;13.59;100.00;98887.45;5067505;56;1141294;-79
2023/03/31 14:26:49;;;;;;;16.87;6.67;;;;;;;13.61;100.00;98886.74;5047162;56;1140858;-80
2023/03/31 14:32:18;;;;;;;8.87;4.60;;;;;;;13.62;100.00;98878.27;5054468;56;1141071;-78
2023/03/31 14:37:24;;;;;;;12.47;5.60;;;;;;;13.62;100.00;98877.77;5042455;56;1138966;-82
2023/03/31 14:42:48;;;;;;;10.77;5.03;;;;;;;13.61;100.00;98878.77;5094318;55;1141092;-79
2023/03/31 14:48:15;;;;;;;18.00;7.90;;;;;;;13.56;100.00;98865.22;5084661;55;1140874;-77
2023/03/31 14:53:25;;;;;;;32.40;15.33;;;;;;;13.55;100.00;98858.76;5078899;55;1141141;-81
2023/03/31 14:58:44;;;;;;;18.97;8.63;;;;;;;13.50;100.00;98851.31;5028746;56;1143069;-77
2023/03/31 15:03:51;;;;;;;26.53;12.67;;;;;;;13.47;100.00;98849.01;5099923;55;1140866;-79
2023/03/31 15:08:58;;;;;;;38.13;21.90;;;;;;;13.43;100.00;98843.75;5130070;55;1143010;-78
2023/03/31 15:14:04;;;;;;;17.60;8.20;;;;;;;13.43;100.00;98836.28;5127839;55;1142881;-78
2023/03/31 15:19:26;;;;;;;168.57;80.85;;;;;;;13.49;100.00;98824.93;5152756;55;1141047;-78
2023/03/31 15:24:32;;;;;;;40.45;11.93;;;;;;;13.51;100.00;98820.27;5101277;55;1158709;-74
2023/03/31 15:29:43;;;;;;;25.23;9.50;;;;;;;13.49;100.00;98815.63;5070770;55;1143067;-74
2023/03/31 15:34:50;;;;;;;14.93;7.00;;;;;;;13.44;100.00;98809.55;5106139;56;1240961;-77
2023/03/31 15:40:07;;;;;;;24.27;11.10;;;;;;;13.41;100.00;98809.08;5052991;56;1240540;-75
2023/03/31 15:45:31;;;;;;;22.27;9.40;;;;;;;13.37;100.00;98802.80;5058354;56;1142991;-76
2023/03/31 15:50:38;;;;;;;27.20;14.58;;;;;;;13.33;100.00;98820.58;5089687;55;1248547;-79
2023/03/31 15:55:44;;;;;;;18.07;9.17;;;;;;;13.02;100.00;98821.42;5068987;56;1245939;-76
2023/03/31 16:00:53;;;;;;;11.40;5.57;;;;;;;12.69;100.00;98829.24;5040789;55;1250848;-77
2023/03/31 16:06:03;;;;;;;31.00;19.07;;;;;;;12.30;100.00;98831.41;5045173;56;1141115;-78
2023/03/31 16:11:13;;;;;;;26.90;16.53;;;;;;;12.03;100.00;98819.91;5082978;55;1143267;-74
2023/03/31 16:16:22;;;;;;;66.67;39.77;;;;;;;11.89;100.00;98824.08;5151915;55;1142991;-76
2023/03/31 16:21:35;;;;;;;30.37;17.77;;;;;;;11.84;100.00;98822.92;5153585;55;1143189;-76
2023/03/31 16:26:40;;;;;;;;;;;;;;;11.86;100.00;98809.02;5139824;55;1142927;-77
2023/03/31 16:31:45;;;;;;;9.30;5.17;;;;;;;11.90;100.00;98805.87;5112150;55;976156;-76
2023/03/31 16:36:51;;;;;;;9.17;6.17;;;;;;;11.90;100.00;98797.09;5081049;55;1136731;-76
2023/03/31 16:41:57;;;;;;;9.93;5.40;;;;;;;11.85;100.00;98796.27;5121015;55;1139155;-78
2023/03/31 16:47:02;;;;;;;13.13;4.90;;;;;;;11.80;100.00;98789.81;5101727;55;1138817;-77
2023/03/31 16:52:08;;;;;;;43.87;25.17;;;;;;;11.74;100.00;98783.85;5096223;56;1141167;-74
2023/03/31 16:57:14;;;;;;;25.47;14.57;;;;;;;11.68;100.00;98777.40;5115857;56;1143124;-74
2023/03/31 17:02:20;;;;;;;17.20;11.37;;;;;;;11.63;100.00;98777.06;5095411;55;1244020;-81
2023/03/31 17:07:25;;;;;;;11.75;6.47;;;;;;;11.67;100.00;98778.39;5100178;56;1159962;-77
2023/03/31 17:12:31;;;;;;;9.93;6.83;;;;;;;11.72;100.00;98776.57;5108246;56;1140987;-66
2023/03/31 17:17:37;;;;;;;16.50;10.00;;;;;;;11.78;100.00;98775.41;5101070;56;1138885;-72
2023/03/31 17:22:43;;;;;;;27.23;16.10;;;;;;;11.77;100.00;98774.25;5040850;56;1143036;-70
2023/03/31 17:27:48;;;;;;;46.13;28.67;;;;;;;11.67;100.00;98765.64;5063006;55;1143227;-69
2023/03/31 17:32:54;;;;;;;51.57;33.60;;;;;;;11.69;100.00;98765.81;5017127;55;1143124;-69
2023/03/31 17:38:00;;;;;;;79.13;50.40;;;;;;;11.70;100.00;98766.14;5021949;56;1143248;-72
2023/03/31 17:43:06;;;;;;;41.63;23.27;;;;;;;11.74;100.00;98757.37;5074520;56;1143072;-73
2023/03/31 17:48:11;;;;;;;18.10;10.57;;;;;;;11.71;100.00;98761.67;5081388;56;1143089;-70
2023/03/31 17:53:17;;;;;;;10.43;5.63;;;;;;;11.62;100.00;98762.17;5097107;56;1143266;-69
2023/03/31 17:58:22;;;;;;;10.57;6.80;;;;;;;11.49;100.00;98764.52;5134542;55;1141118;-70
2023/03/31 18:03:30;;;;;;;11.10;7.67;;;;;;;11.32;100.00;98765.02;5168163;55;1141163;-80
2023/03/31 18:08:36;;;;;;;10.45;6.05;;;;;;;11.19;100.00;98768.67;5156085;55;1141013;-79
2023/03/31 18:13:42;;;;;;;12.87;6.57;;;;;;;11.14;100.00;98767.03;5096508;55;1141581;-76
2023/03/31 18:18:47;;;;;;;7.47;5.30;;;;;;;11.13;100.00;98764.05;5175503;55;1140932;-79
2023/03/31 18:23:54;;;;;;;8.67;5.87;;;;;;;11.12;100.00;98763.73;5141937;55;1138826;-80
2023/03/31 18:28:59;;;;;;;6.50;4.50;;;;;;;11.09;100.00;98766.69;5128904;55;1138820;-81
2023/03/31 18:34:05;;;;;;;8.80;5.23;;;;;;;11.08;100.00;98773.80;5159818;55;1139127;-80
2023/03/31 18:39:11;;;;;;;13.63;6.63;;;;;;;11.09;100.00;98766.69;5055095;56;1139078;-79
2023/03/31 18:44:17;;;;;;;8.43;5.73;;;;;;;11.10;100.00;98768.35;5037523;55;1141087;-80
2023/03/31 18:49:23;;;;;;;8.85;6.53;;;;;;;11.14;100.00;98763.89;5035641;56;1139015;-72
2023/03/31 18:54:28;;;;;;;9.95;7.37;;;;;;;11.16;100.00;98767.67;5057700;56;1138859;-72
2023/03/31 18:59:34;;;;;;;17.67;7.47;;;;;;;11.19;100.00;98760.23;5129311;54;1138929;-78
2023/03/31 19:04:40;;;;;;;45.60;25.52;;;;;;;11.19;100.00;98762.88;5086695;55;1140921;-80
2023/03/31 19:09:45;;;;;;;23.40;12.83;;;;;;;11.19;100.00;98758.09;5131456;55;1143079;-78
2023/03/31 19:14:51;;;;;;;44.47;21.53;;;;;;;11.15;100.00;98758.11;5070745;55;1143074;-77
2023/03/31 19:19:57;;;;;;;29.77;15.53;;;;;;;11.07;100.00;98761.56;5088236;55;1143104;-78
2023/03/31 19:25:03;;;;;;;13.27;7.77;;;;;;;11.04;100.00;98755.77;5068538;55;1143089;-78
2023/03/31 19:30:22;;;;;;;103.37;28.63;;;;;;;11.05;100.00;98755.61;5080948;55;1140880;-81
2023/03/31 19:35:25;;;;;;;142.63;41.57;;;;;;;11.00;100.00;98753.94;5078251;55;1145274;-78
2023/03/31 19:40:30;;;;;;;39.43;16.60;;;;;;;10.98;100.00;98753.31;5126149;55;1145287;-80
2023/03/31 19:45:37;;;;;;;49.58;20.25;;;;;;;11.01;100.00;98747.66;5153735;55;1143038;-77
2023/03/31 19:50:52;;;;;;;30.80;13.23;;;;;;;11.04;100.00;98744.69;5133452;55;1143049;-80
2023/03/31 19:56:06;;;;;;;202.47;64.47;;;;;;;11.05;100.00;98738.41;5155421;56;1143232;-81
2023/03/31 20:01:19;;;;;;;49.87;21.93;;;;;;;11.03;100.00;98738.24;5136933;55;1145006;-80
2023/03/31 20:06:27;;;;;;;;;;;;;;;10.96;100.00;98731.48;5064803;56;1142980;-79
2023/03/31 20:11:33;;;;;;;27.90;11.90;;;;;;;10.95;100.00;98731.14;5108932;55;976119;-81
2023/03/31 20:16:38;;;;;;;130.23;41.67;;;;;;;10.92;100.00;98719.56;5099939;55;1141277;-81
2023/03/31 20:21:46;;;;;;;41.90;26.27;;;;;;;10.97;100.00;98717.27;5090794;55;1145200;-79
2023/03/31 20:26:52;;;;;;;45.73;22.17;;;;;;;11.02;100.00;98716.75;5085695;55;1142981;-79
2023/03/31 20:31:57;;;;;;;35.93;19.37;;;;;;;11.05;100.00;98715.92;5095706;56;1142939;-82
2023/03/31 20:37:03;;;;;;;28.00;16.60;;;;;;;10.96;100.00;98712.97;5016481;57;1142905;-79
2023/03/31 20:42:09;;;;;;;14.03;10.07;;;;;;;10.93;100.00;98718.58;5011379;56;1142968;-81
2023/03/31 20:47:15;;;;;;;16.00;9.33;;;;;;;10.85;100.00;98726.49;5082463;56;1143062;-82
2023/03/31 20:52:21;;;;;;;17.30;10.00;;;;;;;10.64;100.00;98725.66;5093699;56;1140802;-80
2023/03/31 20:57:27;;;;;;;14.38;8.05;;;;;;;10.43;100.00;98716.86;5099189;56;1142888;-79
2023/03/31 21:02:33;;;;;;;9.03;7.25;;;;;;;10.29;100.00;98720.63;5119199;56;1140792;-79
2023/03/31 21:07:39;;;;;;;9.58;6.12;;;;;;;10.22;100.00;98720.45;5051288;56;1138952;-79
2023/03/31 21:12:45;;;;;;;8.37;5.40;;;;;;;10.13;100.00;98717.41;5047573;56;1138900;-82
2023/03/31 21:17:50;;;;;;;8.37;5.67;;;;;;;10.03;100.00;98719.36;5045111;56;1138957;-82
2023/03/31 21:22:56;;;;;;;7.70;5.53;;;;;;;9.97;100.00;98718.66;5013606;56;1138915;-80
2023/03/31 21:28:02;;;;;;;11.97;7.07;;;;;;;9.97;100.00;98727.91;5070681;56;1136787;-82
2023/03/31 21:33:07;;;;;;;7.93;6.57;;;;;;;9.95;100.00;98723.27;5118587;56;1138882;-80
2023/03/31 21:38:13;;;;;;;8.20;6.50;;;;;;;9.87;100.00;98726.23;5101603;55;1136665;-81
2023/03/31 21:43:20;;;;;;;8.50;6.03;;;;;;;9.85;100.00;98724.23;5122491;55;1136702;-82
2023/03/31 21:48:26;;;;;;;8.58;5.53;;;;;;;9.87;100.00;98725.41;5119153;55;1136856;-79
2023/03/31 21:53:32;;;;;;;6.58;5.62;;;;;;;9.82;100.00;98725.04;5086674;55;1136850;-80
2023/03/31 21:58:38;;;;;;;6.22;4.78;;;;;;;9.77;100.00;98729.98;5035185;56;1136742;-83
2023/03/31 22:03:45;;;;;;;6.60;3.47;;;;;;;9.72;100.00;98731.77;5037546;56;1136964;-82
2023/03/31 22:08:51;;;;;;;4.27;3.47;;;;;;;9.68;100.00;98733.55;5031262;56;1136630;-79
2023/03/31 22:13:57;;;;;;;3.53;3.10;;;;;;;9.62;100.00;98737.66;5069240;55;1136765;-80
2023/03/31 22:19:03;;;;;;;4.03;3.10;;;;;;;9.56;100.00;98736.13;5060841;55;1136603;-80
2023/03/31 22:24:12;;;;;;;2.50;2.30;;;;;;;9.50;100.00;98737.08;5045938;55;1136710;-80
2023/03/31 22:29:18;;;;;;;4.03;2.40;;;;;;;9.48;100.00;98740.36;5071742;55;1136837;-81
2023/03/31 22:34:24;;;;;;;2.70;2.42;;;;;;;9.47;100.00;98743.17;5036191;55;1146408;-80
2023/03/31 22:39:30;;;;;;;5.42;2.33;;;;;;;9.44;100.00;98736.88;5073971;55;1136935;-79
2023/03/31 22:44:39;;;;;;;2.70;2.50;;;;;;;9.42;100.00;98743.63;5103069;55;1136738;-81
2023/03/31 22:49:44;;;;;;;2.03;1.87;;;;;;;9.38;100.00;98740.12;5092896;55;1136600;-82
2023/03/31 22:54:50;;;;;;;2.00;1.90;;;;;;;9.32;100.00;98742.09;5083975;55;1136733;-78
2023/03/31 22:59:56;;;;;;;4.00;2.00;;;;;;;9.32;100.00;98742.09;5127342;55;1136707;-77
2023/03/31 23:05:01;;;;;;;4.17;1.80;;;;;;;9.28;100.00;98737.60;5074850;55;1136711;-77
2023/03/31 23:10:08;;;;;;;2.50;2.13;;;;;;;9.28;100.00;98740.73;5120946;55;1136788;-80
2023/03/31 23:15:14;;;;;;;3.45;2.10;;;;;;;9.26;100.00;98734.28;5058066;56;1136622;-76
2023/03/31 23:20:20;;;;;;;2.17;1.97;;;;;;;9.27;100.00;98733.80;5038085;56;1136813;-76
2023/03/31 23:25:25;;;;;;;2.98;1.62;;;;;;;9.26;100.00;98735.61;5018988;55;1136876;-80
2023/03/31 23:30:31;;;;;;;3.02;1.82;;;;;;;9.28;100.00;98737.60;5140755;55;1136737;-79